Atlantis Alicante — 9HA4600 — position and weather

sailwx.info

Track history (hours):
 
Tides and Currents Weather Stations Pressure Air Temp Water Temp Dewpoint Dewpoint Depression Visibility Wind Speed Wind Dir Waves Ship Positions

Atlantis Alicante

Last reported at 2018-Aug-13 09:01 UTC. Time now 2018-Aug-17 11:40 UTC.
Position N 33°08' W 008°42'.

Length 105 m; draft 5.3 m.

Type: Tanker. MMSI: 248295000.

Date/timePositionNaut miles runAvg speedWind from/ knotsBaromVisibWave heightAir tempDewpointWater temp
2018-Aug-13 09:01N 33°08' W 008°42'0 3.8
2018-Aug-13 09:00N 33°08' W 008°42'3 5.6
2018-Aug-13 08:26N 33°08' W 008°46'512.4
2018-Aug-13 08:00N 33°14' W 008°45'1012.8
2018-Aug-13 07:15N 33°23' W 008°43'313.0
2018-Aug-13 06:59N 33°26' W 008°41'612.8
2018-Aug-13 06:30N 33°30' W 008°36'612.5
2018-Aug-13 06:00N 33°35' W 008°31'612.4
2018-Aug-13 05:31N 33°40' W 008°26'712.3
2018-Aug-13 04:55N 33°45' W 008°20'812.1
2018-Aug-13 04:15N 33°51' W 008°13'312.0
2018-Aug-13 04:00N 33°53' W 008°11'611.9
2018-Aug-13 03:30N 33°57' W 008°06'1211.9
2018-Aug-13 02:32N 34°06' W 007°56'012.2
2018-Aug-13 02:30N 34°06' W 007°56'611.8
2018-Aug-13 02:00N 34°11' W 007°51'611.7
2018-Aug-13 01:30N 34°15' W 007°46'911.9
2018-Aug-13 00:43N 34°22' W 007°39'312.1
2018-Aug-13 00:30N 34°24' W 007°37'1412.0
2018-Aug-12 23:20N 34°35' W 007°26'412.2
2018-Aug-12 23:00N 34°38' W 007°23'912.2
2018-Aug-12 22:15N 34°45' W 007°16'411.9
2018-Aug-12 21:57N 34°47' W 007°13'3712.4
2018-Aug-12 18:58N 35°15' W 006°42'6911.0
2018-Aug-12 12:41N 35°58' W 005°36'312.2
2018-Aug-12 12:25N 35°59' W 005°32'512.4
2018-Aug-12 12:00N 36°00' W 005°26'4 8.3
2018-Aug-12 11:30N 36°04' W 005°24'7 0.6
2018-Aug-12 01:03N 36°11' W 005°24'0 0.0
2018-Aug-12 01:00N 36°11' W 005°24'2 3.2
2018-Aug-12 00:31N 36°10' W 005°23'0 0.1
2018-Aug-11 23:53N 36°10' W 005°23'0 0.0
2018-Aug-11 21:17N 36°10' W 005°23'0 0.1
2018-Aug-11 20:59N 36°10' W 005°23'0 0.0
2018-Aug-11 20:23N 36°10' W 005°23'0 0.0
2018-Aug-11 19:59N 36°10' W 005°23'0 0.0
2018-Aug-11 19:29N 36°10' W 005°23'0 0.1
2018-Aug-11 18:59N 36°10' W 005°23'0 0.1
2018-Aug-11 18:11N 36°10' W 005°23'0 0.0
2018-Aug-11 17:44N 36°10' W 005°23'0 0.0
2018-Aug-11 15:29N 36°10' W 005°23'0 0.0
2018-Aug-11 14:59N 36°10' W 005°23'0 0.1
2018-Aug-11 14:29N 36°10' W 005°23'0 0.0
2018-Aug-11 13:59N 36°10' W 005°23'0 0.0
2018-Aug-11 13:29N 36°10' W 005°23'0 0.0
2018-Aug-11 12:53N 36°10' W 005°23'0 0.0
2018-Aug-11 05:23N 36°10' W 005°23'0 0.0
2018-Aug-11 04:53N 36°10' W 005°23'0 0.1
2018-Aug-11 04:29N 36°10' W 005°23'0 0.0
2018-Aug-11 03:59N 36°10' W 005°23'0 0.1
2018-Aug-11 03:29N 36°10' W 005°23'0 0.0
2018-Aug-11 02:59N 36°10' W 005°23'0 0.0
2018-Aug-11 02:29N 36°10' W 005°23'0 0.0
2018-Aug-11 01:59N 36°10' W 005°23'0 0.0
2018-Aug-11 01:29N 36°10' W 005°23'0 0.0
2018-Aug-11 00:59N 36°10' W 005°23'0 0.0
2018-Aug-11 00:29N 36°10' W 005°23'0 0.1
2018-Aug-10 23:59N 36°10' W 005°23'0 0.1
2018-Aug-10 23:23N 36°10' W 005°23'0 0.1
2018-Aug-10 22:59N 36°10' W 005°23'0 0.0
2018-Aug-10 22:29N 36°10' W 005°23'0 0.1
2018-Aug-10 21:47N 36°10' W 005°23'0 0.2
2018-Aug-10 21:29N 36°10' W 005°23'1 2.6
2018-Aug-10 21:00N 36°09' W 005°24'4 8.4
2018-Aug-10 20:30N 36°05' W 005°22'1 2.6
2018-Aug-10 20:00N 36°05' W 005°21'1 2.9
2018-Aug-10 19:31N 36°03' W 005°21'5 9.2
2018-Aug-10 19:00N 35°59' W 005°23'714.5
2018-Aug-10 18:30N 35°57' W 005°31'913.1
2018-Aug-10 17:51N 35°54' W 005°42'14411.6
2018-Aug-10 05:27N 34°02' W 007°31'74 2.4
2018-Aug-08 22:21N 35°04' W 006°42'511.9
2018-Aug-08 21:54N 35°09' W 006°38'611.8
2018-Aug-08 21:23N 35°14' W 006°34'5212.1
2018-Aug-08 17:07N 35°57' W 005°59'18 9.2
2018-Aug-08 15:11N 35°58' W 005°37'5 7.7
2018-Aug-08 14:35N 35°59' W 005°31'1 8.1
2018-Aug-08 14:30N 35°59' W 005°30'5 8.0
2018-Aug-08 13:55N 36°01' W 005°25'4 9.3
2018-Aug-08 13:30N 36°04' W 005°23'6 0.4
2018-Aug-07 21:47N 36°11' W 005°24'1 2.3
2018-Aug-07 21:30N 36°10' W 005°24'4 8.0
2018-Aug-07 21:00N 36°06' W 005°23'5 9.2
2018-Aug-07 20:30N 36°05' W 005°17'3 6.3
2018-Aug-07 20:00N 36°04' W 005°13'3 5.8
2018-Aug-07 19:30N 36°01' W 005°13'4 7.5
2018-Aug-07 19:01N 36°00' W 005°18'4 7.4
2018-Aug-07 18:30N 35°59' W 005°22'4 8.8
2018-Aug-07 18:00N 35°58' W 005°27'4412.7
2018-Aug-07 14:34N 35°54' W 006°21'113.5
2018-Aug-07 14:30N 35°54' W 006°22'2212.9
2018-Aug-07 12:50N 35°60' W 006°48'1712.1
2018-Aug-07 11:25N 36°04' W 007°09'612.0
2018-Aug-07 10:55N 36°05' W 007°16'511.6
2018-Aug-07 10:30N 36°06' W 007°22'611.6
2018-Aug-07 10:00N 36°07' W 007°29'711.9
2018-Aug-07 09:26N 36°09' W 007°37'1912.0
2018-Aug-07 07:49N 36°14' W 008°00'412.1
2018-Aug-07 07:29N 36°15' W 008°05'912.1
2018-Aug-07 06:45N 36°17' W 008°16'312.1
2018-Aug-07 06:29N 36°17' W 008°20'1711.5
2018-Aug-07 05:03N 36°21' W 008°39'111.1
2018-Aug-07 04:59N 36°21' W 008°40'611.4
2018-Aug-07 04:26N 36°23' W 008°48'511.3
2018-Aug-07 03:59N 36°24' W 008°54'5 9.8
2018-Aug-07 03:29N 36°23' W 008°60'3410.2
2018-Aug-07 00:12N 36°42' W 009°35'211.8
2018-Aug-07 00:01N 36°44' W 009°37'611.7
2018-Aug-06 23:30N 36°49' W 009°39'612.0
2018-Aug-06 23:00N 36°55' W 009°40'612.0
2018-Aug-06 22:30N 37°01' W 009°41'612.1
2018-Aug-06 22:00N 37°06' W 009°37'612.3
2018-Aug-06 21:30N 37°12' W 009°33'712.4
2018-Aug-06 20:57N 37°17' W 009°28'612.3
2018-Aug-06 20:30N 37°22' W 009°25'612.7
2018-Aug-06 20:00N 37°28' W 009°21'612.1
2018-Aug-06 19:30N 37°33' W 009°18'612.5
2018-Aug-06 19:01N 37°38' W 009°14'612.3
2018-Aug-06 18:31N 37°44' W 009°09'612.4
2018-Aug-06 18:00N 37°49' W 009°05'611.6
2018-Aug-06 17:30N 37°52' W 008°59'611.8
2018-Aug-06 17:00N 37°56' W 008°53'1 2.6
2018-Aug-06 16:29N 37°57' W 008°53'0 0.0
2018-Aug-06 15:59N 37°57' W 008°53'0 0.0
2018-Aug-06 15:26N 37°57' W 008°53'0 0.0
2018-Aug-06 14:59N 37°57' W 008°53'0 0.0
2018-Aug-06 14:29N 37°57' W 008°53'0 0.0
2018-Aug-06 13:59N 37°57' W 008°53'0 0.0
2018-Aug-06 13:29N 37°57' W 008°53'0 0.0
2018-Aug-06 12:59N 37°57' W 008°53'0 0.0
2018-Aug-06 12:29N 37°57' W 008°53'0 0.0
2018-Aug-06 11:59N 37°57' W 008°53'0 0.0
2018-Aug-06 11:29N 37°57' W 008°53'0 0.0
2018-Aug-06 10:59N 37°57' W 008°53'0 0.0
2018-Aug-06 10:29N 37°57' W 008°53'0 0.0
2018-Aug-06 09:59N 37°57' W 008°53'0 0.0
2018-Aug-06 09:29N 37°57' W 008°53'0 0.0
2018-Aug-06 08:59N 37°57' W 008°53'0 0.0
2018-Aug-06 08:26N 37°57' W 008°53'0 0.0
2018-Aug-06 07:59N 37°57' W 008°53'0 0.0
2018-Aug-06 07:29N 37°57' W 008°53'0 0.0
2018-Aug-06 06:59N 37°57' W 008°53'0 0.0
2018-Aug-06 06:29N 37°57' W 008°53'0 0.0
2018-Aug-06 05:59N 37°57' W 008°53'0 0.0
2018-Aug-06 05:29N 37°57' W 008°53'0 0.0
2018-Aug-06 04:59N 37°57' W 008°53'0 0.0
2018-Aug-06 04:26N 37°57' W 008°53'0 0.0
2018-Aug-06 03:56N 37°57' W 008°53'0 0.0
2018-Aug-06 03:29N 37°57' W 008°53'0 0.0
2018-Aug-06 02:56N 37°57' W 008°53'0 0.0
2018-Aug-06 02:29N 37°57' W 008°53'0 0.0
2018-Aug-06 01:59N 37°57' W 008°53'0 0.0
2018-Aug-06 01:26N 37°57' W 008°53'0 0.0
2018-Aug-06 00:56N 37°57' W 008°53'0 0.0
2018-Aug-06 00:29N 37°57' W 008°53'0 0.0
2018-Aug-05 23:59N 37°57' W 008°53'0 0.0
2018-Aug-05 23:29N 37°57' W 008°53'0 0.0
2018-Aug-05 22:59N 37°57' W 008°53'0 0.0
2018-Aug-05 22:29N 37°57' W 008°53'0 0.0
2018-Aug-05 21:59N 37°57' W 008°53'1 1.2
2018-Aug-05 21:30N 37°57' W 008°53'2 3.6
2018-Aug-05 21:00N 37°55' W 008°52'0 0.2
2018-Aug-05 20:29N 37°55' W 008°52'0 0.2
2018-Aug-05 19:59N 37°55' W 008°52'0 0.1
2018-Aug-05 19:29N 37°55' W 008°52'0 0.0
2018-Aug-05 18:59N 37°55' W 008°52'0 0.0
2018-Aug-05 18:26N 37°55' W 008°52'0 0.0
2018-Aug-05 17:59N 37°55' W 008°52'0 0.0
2018-Aug-05 17:29N 37°55' W 008°52'0 0.0
2018-Aug-05 16:59N 37°55' W 008°52'0 0.0
2018-Aug-05 16:29N 37°55' W 008°52'0 0.0
2018-Aug-05 15:59N 37°55' W 008°52'0 0.1
2018-Aug-05 15:29N 37°55' W 008°52'0 0.0
2018-Aug-05 14:59N 37°55' W 008°52'0 0.0
2018-Aug-05 14:29N 37°55' W 008°52'0 0.0
2018-Aug-05 13:29N 37°55' W 008°52'0 0.0
2018-Aug-05 12:59N 37°55' W 008°52'0 0.0
2018-Aug-05 12:29N 37°55' W 008°52'0 0.0
2018-Aug-05 11:59N 37°55' W 008°52'0 0.0
2018-Aug-05 11:29N 37°55' W 008°52'0 0.0
2018-Aug-05 10:59N 37°55' W 008°52'0 0.0
2018-Aug-05 10:29N 37°55' W 008°52'0 0.0
2018-Aug-05 09:59N 37°55' W 008°52'0 0.0
2018-Aug-05 09:29N 37°55' W 008°52'0 0.0
2018-Aug-05 08:59N 37°55' W 008°52'0 0.0
2018-Aug-05 08:29N 37°55' W 008°52'0 0.0
2018-Aug-05 07:59N 37°55' W 008°52'0 0.0
2018-Aug-05 07:29N 37°55' W 008°52'0 0.0
2018-Aug-05 06:59N 37°55' W 008°52'0 0.0
2018-Aug-05 06:29N 37°55' W 008°52'0 0.0
2018-Aug-05 05:59N 37°55' W 008°52'0 0.0
2018-Aug-05 05:29N 37°55' W 008°52'0 0.0
2018-Aug-05 04:59N 37°55' W 008°52'0 0.0
2018-Aug-05 04:29N 37°55' W 008°52'0 0.0
2018-Aug-05 03:59N 37°55' W 008°52'0 0.0
2018-Aug-05 03:29N 37°55' W 008°52'0 0.2
2018-Aug-05 02:59N 37°55' W 008°52'0 0.0
2018-Aug-05 02:29N 37°55' W 008°52'0 0.0
2018-Aug-05 01:59N 37°55' W 008°52'0 0.1
2018-Aug-05 01:29N 37°55' W 008°52'0 0.0
2018-Aug-05 00:59N 37°55' W 008°52'0 0.0
2018-Aug-05 00:29N 37°55' W 008°52'0 0.0
2018-Aug-04 23:59N 37°55' W 008°52'0 0.0
2018-Aug-04 23:29N 37°55' W 008°52'0 0.0
2018-Aug-04 22:59N 37°55' W 008°52'0 0.0
2018-Aug-04 22:29N 37°55' W 008°52'0 0.0
2018-Aug-04 21:59N 37°55' W 008°52'0 0.0
2018-Aug-04 21:29N 37°55' W 008°52'0 0.0
2018-Aug-04 20:59N 37°55' W 008°52'0 0.0
2018-Aug-04 20:29N 37°55' W 008°52'0 0.1
2018-Aug-04 19:59N 37°55' W 008°52'0 0.0
2018-Aug-04 19:29N 37°55' W 008°52'0 0.0
2018-Aug-04 18:59N 37°55' W 008°52'0 0.1
2018-Aug-04 18:29N 37°55' W 008°52'0 0.0
2018-Aug-04 17:59N 37°55' W 008°52'0 0.0
2018-Aug-04 17:29N 37°55' W 008°52'0 0.0
2018-Aug-04 16:59N 37°55' W 008°52'0 0.0
2018-Aug-04 16:29N 37°55' W 008°52'1 2.8
2018-Aug-04 16:00N 37°55' W 008°53'612.5
2018-Aug-04 15:30N 37°60' W 008°59'713.1
2018-Aug-04 15:00N 38°03' W 009°06'713.3
2018-Aug-04 14:31N 38°07' W 009°13'713.2
2018-Aug-04 14:00N 38°10' W 009°21'713.6
2018-Aug-04 13:30N 38°13' W 009°28'713.9
2018-Aug-04 13:00N 38°17' W 009°36'713.5
2018-Aug-04 12:30N 38°20' W 009°43'613.0
2018-Aug-04 12:00N 38°24' W 009°50'612.8
2018-Aug-04 11:30N 38°27' W 009°57'612.7
2018-Aug-04 11:00N 38°30' W 010°04'612.0
2018-Aug-04 10:30N 38°34' W 010°10'612.6
2018-Aug-04 10:00N 38°41' W 010°11'612.6
2018-Aug-04 09:30N 38°47' W 010°11'713.1
2018-Aug-04 09:00N 38°53' W 010°11'713.4
2018-Aug-04 08:30N 39°00' W 010°11'713.3
2018-Aug-04 08:01N 39°07' W 010°11'713.3
2018-Aug-04 07:30N 39°13' W 010°11'713.2
2018-Aug-04 06:59N 39°20' W 010°11'613.1
2018-Aug-04 06:30N 39°27' W 010°11'713.2
2018-Aug-04 06:00N 39°33' W 010°11'713.2
2018-Aug-04 05:30N 39°40' W 010°10'613.1
2018-Aug-04 05:00N 39°46' W 010°10'713.3
2018-Aug-04 04:30N 39°53' W 010°11'713.0
2018-Aug-04 04:00N 39°59' W 010°11'713.2
2018-Aug-04 03:30N 40°06' W 010°11'713.1
2018-Aug-04 03:00N 40°13' W 010°11'713.1
2018-Aug-04 02:30N 40°19' W 010°11'713.2
2018-Aug-04 02:00N 40°26' W 010°11'713.3
2018-Aug-04 01:30N 40°32' W 010°11'713.2
2018-Aug-04 01:00N 40°39' W 010°11'713.2
2018-Aug-04 00:30N 40°46' W 010°11'713.3
2018-Aug-04 00:00N 40°52' W 010°11'713.6
2018-Aug-03 23:30N 40°59' W 010°11'713.2
2018-Aug-03 23:00N 41°06' W 010°12'713.5
2018-Aug-03 22:30N 41°13' W 010°12'1413.5
2018-Aug-03 21:26N 41°27' W 010°11'613.4
2018-Aug-03 21:00N 41°33' W 010°11'713.3
2018-Aug-03 20:30N 41°39' W 010°11'  
Track history (hours):
 
Tides and Currents Weather Stations Pressure Air Temp Water Temp Dewpoint Dewpoint Depression Visibility Wind Speed Wind Dir Waves Ship Positions

Atlantis Alicante

Last reported at 2018-Aug-13 09:01 UTC. Time now 2018-Aug-17 11:40 UTC.
Position N 33°08' W 008°42'.

Length 105 m; draft 5.3 m.

Type: Tanker. MMSI: 248295000.

Date/timePositionNaut miles runAvg speedWind from/ knotsBaromVisibWave heightAir tempDewpointWater temp
2018-Aug-13 09:01N 33°08' W 008°42'0 3.8
2018-Aug-13 09:00N 33°08' W 008°42'3 5.6
2018-Aug-13 08:26N 33°08' W 008°46'512.4
2018-Aug-13 08:00N 33°14' W 008°45'1012.8
2018-Aug-13 07:15N 33°23' W 008°43'313.0
2018-Aug-13 06:59N 33°26' W 008°41'612.8
2018-Aug-13 06:30N 33°30' W 008°36'612.5
2018-Aug-13 06:00N 33°35' W 008°31'612.4
2018-Aug-13 05:31N 33°40' W 008°26'712.3
2018-Aug-13 04:55N 33°45' W 008°20'812.1
2018-Aug-13 04:15N 33°51' W 008°13'312.0
2018-Aug-13 04:00N 33°53' W 008°11'611.9
2018-Aug-13 03:30N 33°57' W 008°06'1211.9
2018-Aug-13 02:32N 34°06' W 007°56'012.2
2018-Aug-13 02:30N 34°06' W 007°56'611.8
2018-Aug-13 02:00N 34°11' W 007°51'611.7
2018-Aug-13 01:30N 34°15' W 007°46'911.9
2018-Aug-13 00:43N 34°22' W 007°39'312.1
2018-Aug-13 00:30N 34°24' W 007°37'1412.0
2018-Aug-12 23:20N 34°35' W 007°26'412.2
2018-Aug-12 23:00N 34°38' W 007°23'912.2
2018-Aug-12 22:15N 34°45' W 007°16'411.9
2018-Aug-12 21:57N 34°47' W 007°13'3712.4
2018-Aug-12 18:58N 35°15' W 006°42'6911.0
2018-Aug-12 12:41N 35°58' W 005°36'312.2
2018-Aug-12 12:25N 35°59' W 005°32'512.4
2018-Aug-12 12:00N 36°00' W 005°26'4 8.3
2018-Aug-12 11:30N 36°04' W 005°24'7 0.6
2018-Aug-12 01:03N 36°11' W 005°24'0 0.0
2018-Aug-12 01:00N 36°11' W 005°24'2 3.2
2018-Aug-12 00:31N 36°10' W 005°23'0 0.1
2018-Aug-11 23:53N 36°10' W 005°23'0 0.0
2018-Aug-11 21:17N 36°10' W 005°23'0 0.1
2018-Aug-11 20:59N 36°10' W 005°23'0 0.0
2018-Aug-11 20:23N 36°10' W 005°23'0 0.0
2018-Aug-11 19:59N 36°10' W 005°23'0 0.0
2018-Aug-11 19:29N 36°10' W 005°23'0 0.1
2018-Aug-11 18:59N 36°10' W 005°23'0 0.1
2018-Aug-11 18:11N 36°10' W 005°23'0 0.0
2018-Aug-11 17:44N 36°10' W 005°23'0 0.0
2018-Aug-11 15:29N 36°10' W 005°23'0 0.0
2018-Aug-11 14:59N 36°10' W 005°23'0 0.1
2018-Aug-11 14:29N 36°10' W 005°23'0 0.0
2018-Aug-11 13:59N 36°10' W 005°23'0 0.0
2018-Aug-11 13:29N 36°10' W 005°23'0 0.0
2018-Aug-11 12:53N 36°10' W 005°23'0 0.0
2018-Aug-11 05:23N 36°10' W 005°23'0 0.0
2018-Aug-11 04:53N 36°10' W 005°23'0 0.1
2018-Aug-11 04:29N 36°10' W 005°23'0 0.0
2018-Aug-11 03:59N 36°10' W 005°23'0 0.1
2018-Aug-11 03:29N 36°10' W 005°23'0 0.0
2018-Aug-11 02:59N 36°10' W 005°23'0 0.0
2018-Aug-11 02:29N 36°10' W 005°23'0 0.0
2018-Aug-11 01:59N 36°10' W 005°23'0 0.0
2018-Aug-11 01:29N 36°10' W 005°23'0 0.0
2018-Aug-11 00:59N 36°10' W 005°23'0 0.0
2018-Aug-11 00:29N 36°10' W 005°23'0 0.1
2018-Aug-10 23:59N 36°10' W 005°23'0 0.1
2018-Aug-10 23:23N 36°10' W 005°23'0 0.1
2018-Aug-10 22:59N 36°10' W 005°23'0 0.0
2018-Aug-10 22:29N 36°10' W 005°23'0 0.1
2018-Aug-10 21:47N 36°10' W 005°23'0 0.2
2018-Aug-10 21:29N 36°10' W 005°23'1 2.6
2018-Aug-10 21:00N 36°09' W 005°24'4 8.4
2018-Aug-10 20:30N 36°05' W 005°22'1 2.6
2018-Aug-10 20:00N 36°05' W 005°21'1 2.9
2018-Aug-10 19:31N 36°03' W 005°21'5 9.2
2018-Aug-10 19:00N 35°59' W 005°23'714.5
2018-Aug-10 18:30N 35°57' W 005°31'913.1
2018-Aug-10 17:51N 35°54' W 005°42'14411.6
2018-Aug-10 05:27N 34°02' W 007°31'74 2.4
2018-Aug-08 22:21N 35°04' W 006°42'511.9
2018-Aug-08 21:54N 35°09' W 006°38'611.8
2018-Aug-08 21:23N 35°14' W 006°34'5212.1
2018-Aug-08 17:07N 35°57' W 005°59'18 9.2
2018-Aug-08 15:11N 35°58' W 005°37'5 7.7
2018-Aug-08 14:35N 35°59' W 005°31'1 8.1
2018-Aug-08 14:30N 35°59' W 005°30'5 8.0
2018-Aug-08 13:55N 36°01' W 005°25'4 9.3
2018-Aug-08 13:30N 36°04' W 005°23'6 0.4
2018-Aug-07 21:47N 36°11' W 005°24'1 2.3
2018-Aug-07 21:30N 36°10' W 005°24'4 8.0
2018-Aug-07 21:00N 36°06' W 005°23'5 9.2
2018-Aug-07 20:30N 36°05' W 005°17'3 6.3
2018-Aug-07 20:00N 36°04' W 005°13'3 5.8
2018-Aug-07 19:30N 36°01' W 005°13'4 7.5
2018-Aug-07 19:01N 36°00' W 005°18'4 7.4
2018-Aug-07 18:30N 35°59' W 005°22'4 8.8
2018-Aug-07 18:00N 35°58' W 005°27'4412.7
2018-Aug-07 14:34N 35°54' W 006°21'113.5
2018-Aug-07 14:30N 35°54' W 006°22'2212.9
2018-Aug-07 12:50N 35°60' W 006°48'1712.1
2018-Aug-07 11:25N 36°04' W 007°09'612.0
2018-Aug-07 10:55N 36°05' W 007°16'511.6
2018-Aug-07 10:30N 36°06' W 007°22'611.6
2018-Aug-07 10:00N 36°07' W 007°29'711.9
2018-Aug-07 09:26N 36°09' W 007°37'1912.0
2018-Aug-07 07:49N 36°14' W 008°00'412.1
2018-Aug-07 07:29N 36°15' W 008°05'912.1
2018-Aug-07 06:45N 36°17' W 008°16'312.1
2018-Aug-07 06:29N 36°17' W 008°20'1711.5
2018-Aug-07 05:03N 36°21' W 008°39'111.1
2018-Aug-07 04:59N 36°21' W 008°40'611.4
2018-Aug-07 04:26N 36°23' W 008°48'511.3
2018-Aug-07 03:59N 36°24' W 008°54'5 9.8
2018-Aug-07 03:29N 36°23' W 008°60'3410.2
2018-Aug-07 00:12N 36°42' W 009°35'211.8
2018-Aug-07 00:01N 36°44' W 009°37'611.7
2018-Aug-06 23:30N 36°49' W 009°39'612.0
2018-Aug-06 23:00N 36°55' W 009°40'612.0
2018-Aug-06 22:30N 37°01' W 009°41'612.1
2018-Aug-06 22:00N 37°06' W 009°37'612.3
2018-Aug-06 21:30N 37°12' W 009°33'712.4
2018-Aug-06 20:57N 37°17' W 009°28'612.3
2018-Aug-06 20:30N 37°22' W 009°25'612.7
2018-Aug-06 20:00N 37°28' W 009°21'612.1
2018-Aug-06 19:30N 37°33' W 009°18'612.5
2018-Aug-06 19:01N 37°38' W 009°14'612.3
2018-Aug-06 18:31N 37°44' W 009°09'612.4
2018-Aug-06 18:00N 37°49' W 009°05'611.6
2018-Aug-06 17:30N 37°52' W 008°59'611.8
2018-Aug-06 17:00N 37°56' W 008°53'1 2.6
2018-Aug-06 16:29N 37°57' W 008°53'0 0.0
2018-Aug-06 15:59N 37°57' W 008°53'0 0.0
2018-Aug-06 15:26N 37°57' W 008°53'0 0.0
2018-Aug-06 14:59N 37°57' W 008°53'0 0.0
2018-Aug-06 14:29N 37°57' W 008°53'0 0.0
2018-Aug-06 13:59N 37°57' W 008°53'0 0.0
2018-Aug-06 13:29N 37°57' W 008°53'0 0.0
2018-Aug-06 12:59N 37°57' W 008°53'0 0.0
2018-Aug-06 12:29N 37°57' W 008°53'0 0.0
2018-Aug-06 11:59N 37°57' W 008°53'0 0.0
2018-Aug-06 11:29N 37°57' W 008°53'0 0.0
2018-Aug-06 10:59N 37°57' W 008°53'0 0.0
2018-Aug-06 10:29N 37°57' W 008°53'0 0.0
2018-Aug-06 09:59N 37°57' W 008°53'0 0.0
2018-Aug-06 09:29N 37°57' W 008°53'0 0.0
2018-Aug-06 08:59N 37°57' W 008°53'0 0.0
2018-Aug-06 08:26N 37°57' W 008°53'0 0.0
2018-Aug-06 07:59N 37°57' W 008°53'0 0.0
2018-Aug-06 07:29N 37°57' W 008°53'0 0.0
2018-Aug-06 06:59N 37°57' W 008°53'0 0.0
2018-Aug-06 06:29N 37°57' W 008°53'0 0.0
2018-Aug-06 05:59N 37°57' W 008°53'0 0.0
2018-Aug-06 05:29N 37°57' W 008°53'0 0.0
2018-Aug-06 04:59N 37°57' W 008°53'0 0.0
2018-Aug-06 04:26N 37°57' W 008°53'0 0.0
2018-Aug-06 03:56N 37°57' W 008°53'0 0.0
2018-Aug-06 03:29N 37°57' W 008°53'0 0.0
2018-Aug-06 02:56N 37°57' W 008°53'0 0.0
2018-Aug-06 02:29N 37°57' W 008°53'0 0.0
2018-Aug-06 01:59N 37°57' W 008°53'0 0.0
2018-Aug-06 01:26N 37°57' W 008°53'0 0.0
2018-Aug-06 00:56N 37°57' W 008°53'0 0.0
2018-Aug-06 00:29N 37°57' W 008°53'0 0.0
2018-Aug-05 23:59N 37°57' W 008°53'0 0.0
2018-Aug-05 23:29N 37°57' W 008°53'0 0.0
2018-Aug-05 22:59N 37°57' W 008°53'0 0.0
2018-Aug-05 22:29N 37°57' W 008°53'0 0.0
2018-Aug-05 21:59N 37°57' W 008°53'1 1.2
2018-Aug-05 21:30N 37°57' W 008°53'2 3.6
2018-Aug-05 21:00N 37°55' W 008°52'0 0.2
2018-Aug-05 20:29N 37°55' W 008°52'0 0.2
2018-Aug-05 19:59N 37°55' W 008°52'0 0.1
2018-Aug-05 19:29N 37°55' W 008°52'0 0.0
2018-Aug-05 18:59N 37°55' W 008°52'0 0.0
2018-Aug-05 18:26N 37°55' W 008°52'0 0.0
2018-Aug-05 17:59N 37°55' W 008°52'0 0.0
2018-Aug-05 17:29N 37°55' W 008°52'0 0.0
2018-Aug-05 16:59N 37°55' W 008°52'0 0.0
2018-Aug-05 16:29N 37°55' W 008°52'0 0.0
2018-Aug-05 15:59N 37°55' W 008°52'0 0.1
2018-Aug-05 15:29N 37°55' W 008°52'0 0.0
2018-Aug-05 14:59N 37°55' W 008°52'0 0.0
2018-Aug-05 14:29N 37°55' W 008°52'0 0.0
2018-Aug-05 13:29N 37°55' W 008°52'0 0.0
2018-Aug-05 12:59N 37°55' W 008°52'0 0.0
2018-Aug-05 12:29N 37°55' W 008°52'0 0.0
2018-Aug-05 11:59N 37°55' W 008°52'0 0.0
2018-Aug-05 11:29N 37°55' W 008°52'0 0.0
2018-Aug-05 10:59N 37°55' W 008°52'0 0.0
2018-Aug-05 10:29N 37°55' W 008°52'0 0.0
2018-Aug-05 09:59N 37°55' W 008°52'0 0.0
2018-Aug-05 09:29N 37°55' W 008°52'0 0.0
2018-Aug-05 08:59N 37°55' W 008°52'0 0.0
2018-Aug-05 08:29N 37°55' W 008°52'0 0.0
2018-Aug-05 07:59N 37°55' W 008°52'0 0.0
2018-Aug-05 07:29N 37°55' W 008°52'0 0.0
2018-Aug-05 06:59N 37°55' W 008°52'0 0.0
2018-Aug-05 06:29N 37°55' W 008°52'0 0.0
2018-Aug-05 05:59N 37°55' W 008°52'0 0.0
2018-Aug-05 05:29N 37°55' W 008°52'0 0.0
2018-Aug-05 04:59N 37°55' W 008°52'0 0.0
2018-Aug-05 04:29N 37°55' W 008°52'0 0.0
2018-Aug-05 03:59N 37°55' W 008°52'0 0.0
2018-Aug-05 03:29N 37°55' W 008°52'0 0.2
2018-Aug-05 02:59N 37°55' W 008°52'0 0.0
2018-Aug-05 02:29N 37°55' W 008°52'0 0.0
2018-Aug-05 01:59N 37°55' W 008°52'0 0.1
2018-Aug-05 01:29N 37°55' W 008°52'0 0.0
2018-Aug-05 00:59N 37°55' W 008°52'0 0.0
2018-Aug-05 00:29N 37°55' W 008°52'0 0.0
2018-Aug-04 23:59N 37°55' W 008°52'0 0.0
2018-Aug-04 23:29N 37°55' W 008°52'0 0.0
2018-Aug-04 22:59N 37°55' W 008°52'0 0.0
2018-Aug-04 22:29N 37°55' W 008°52'0 0.0
2018-Aug-04 21:59N 37°55' W 008°52'0 0.0
2018-Aug-04 21:29N 37°55' W 008°52'0 0.0
2018-Aug-04 20:59N 37°55' W 008°52'0 0.0
2018-Aug-04 20:29N 37°55' W 008°52'0 0.1
2018-Aug-04 19:59N 37°55' W 008°52'0 0.0
2018-Aug-04 19:29N 37°55' W 008°52'0 0.0
2018-Aug-04 18:59N 37°55' W 008°52'0 0.1
2018-Aug-04 18:29N 37°55' W 008°52'0 0.0
2018-Aug-04 17:59N 37°55' W 008°52'0 0.0
2018-Aug-04 17:29N 37°55' W 008°52'0 0.0
2018-Aug-04 16:59N 37°55' W 008°52'0 0.0
2018-Aug-04 16:29N 37°55' W 008°52'1 2.8
2018-Aug-04 16:00N 37°55' W 008°53'612.5
2018-Aug-04 15:30N 37°60' W 008°59'713.1
2018-Aug-04 15:00N 38°03' W 009°06'713.3
2018-Aug-04 14:31N 38°07' W 009°13'713.2
2018-Aug-04 14:00N 38°10' W 009°21'713.6
2018-Aug-04 13:30N 38°13' W 009°28'713.9
2018-Aug-04 13:00N 38°17' W 009°36'713.5
2018-Aug-04 12:30N 38°20' W 009°43'613.0
2018-Aug-04 12:00N 38°24' W 009°50'612.8
2018-Aug-04 11:30N 38°27' W 009°57'612.7
2018-Aug-04 11:00N 38°30' W 010°04'612.0
2018-Aug-04 10:30N 38°34' W 010°10'612.6
2018-Aug-04 10:00N 38°41' W 010°11'612.6
2018-Aug-04 09:30N 38°47' W 010°11'713.1
2018-Aug-04 09:00N 38°53' W 010°11'713.4
2018-Aug-04 08:30N 39°00' W 010°11'713.3
2018-Aug-04 08:01N 39°07' W 010°11'713.3
2018-Aug-04 07:30N 39°13' W 010°11'713.2
2018-Aug-04 06:59N 39°20' W 010°11'613.1
2018-Aug-04 06:30N 39°27' W 010°11'713.2
2018-Aug-04 06:00N 39°33' W 010°11'713.2
2018-Aug-04 05:30N 39°40' W 010°10'613.1
2018-Aug-04 05:00N 39°46' W 010°10'713.3
2018-Aug-04 04:30N 39°53' W 010°11'713.0
2018-Aug-04 04:00N 39°59' W 010°11'713.2
2018-Aug-04 03:30N 40°06' W 010°11'713.1
2018-Aug-04 03:00N 40°13' W 010°11'713.1
2018-Aug-04 02:30N 40°19' W 010°11'713.2
2018-Aug-04 02:00N 40°26' W 010°11'713.3
2018-Aug-04 01:30N 40°32' W 010°11'713.2
2018-Aug-04 01:00N 40°39' W 010°11'713.2
2018-Aug-04 00:30N 40°46' W 010°11'713.3
2018-Aug-04 00:00N 40°52' W 010°11'713.6
2018-Aug-03 23:30N 40°59' W 010°11'713.2
2018-Aug-03 23:00N 41°06' W 010°12'713.5
2018-Aug-03 22:30N 41°13' W 010°12'1413.5
2018-Aug-03 21:26N 41°27' W 010°11'613.4
2018-Aug-03 21:00N 41°33' W 010°11'713.3
2018-Aug-03 20:30N 41°39' W 010°11'  

Dump ship's entire track history